Time;durP1;ratioP1;P1;durP2;ratioP2;P2;SDS_P1;SDS_P2;PMS_P1;PMS_P2;Temp;Humidity;BMP_temperature;BMP_pressure;BME280_temperature;BME280_humidity;BME280_pressure;Samples;Min_cycle;Max_cycle;Signal;HPM_P1;HPM_P2
2023/09/26 00:00:18;;;;;;;7.20;3.13;;;9.60;99.90;;;-144.05;81.63;56904.06;5072249;28;20465;-82
2023/09/26 00:02:45;;;;;;;5.53;3.50;;;;;;;-144.05;81.54;56933.78;5066508;28;20017;-81
2023/09/26 00:05:12;;;;;;;4.97;2.97;;;8.10;99.90;;;-144.05;81.40;56916.81;5072069;28;20509;-83
2023/09/26 00:07:38;;;;;;;7.05;2.97;;;9.20;99.90;;;-144.05;81.40;56914.69;5072227;28;20031;-81
2023/09/26 00:10:07;;;;;;;6.45;3.05;;;9.80;99.90;;;-144.05;81.45;56857.34;5070357;28;20036;-80
2023/09/26 00:12:33;;;;;;;6.15;3.35;;;11.50;99.90;;;-144.05;81.55;56878.56;5070647;28;20054;-80
2023/09/26 00:15:00;;;;;;;3.30;2.50;;;9.70;99.90;;;-144.05;81.42;56882.81;5072263;28;20020;-82
2023/09/26 00:17:27;;;;;;;5.50;3.33;;;11.30;99.90;;;-144.05;81.55;56923.19;5069964;28;20032;-82
2023/09/26 00:19:53;;;;;;;4.35;2.72;;;8.70;99.90;;;-144.05;81.61;56901.94;5071779;28;20021;-81
2023/09/26 00:22:20;;;;;;;6.68;3.50;;;11.50;99.90;;;-144.05;81.37;56912.56;5069589;28;20070;-81
2023/09/26 00:24:46;;;;;;;5.10;2.95;;;9.00;99.90;;;-144.05;81.46;56880.69;5071203;28;20017;-81
2023/09/26 00:27:12;;;;;;;4.90;3.15;;;11.40;99.90;;;-144.05;81.34;56906.19;5069836;28;20028;-83
2023/09/26 00:29:38;;;;;;;6.18;3.50;;;;;;;-144.05;81.71;56916.81;5064185;28;20032;-82
2023/09/26 00:32:04;;;;;;;6.28;3.30;;;8.30;99.90;;;-144.05;81.59;56889.19;5070790;28;20024;-82
2023/09/26 00:34:30;;;;;;;6.68;3.65;;;9.10;99.90;;;-144.05;81.50;56895.56;5071021;28;20060;-82
2023/09/26 00:36:56;;;;;;;4.78;3.35;;;;;;;-144.05;81.25;56889.19;5069578;28;20025;-82
2023/09/26 00:39:22;;;;;;;4.70;3.47;;;11.50;99.90;;;-144.05;81.57;56908.31;5070691;28;20676;-81
2023/09/26 00:41:48;;;;;;;5.70;3.20;;;9.10;99.90;;;-144.05;81.70;56931.66;5070790;28;20444;-82
2023/09/26 00:44:14;;;;;;;4.15;3.13;;;11.30;99.90;;;-144.05;81.57;56910.44;5084495;28;20021;-82
2023/09/26 00:46:43;;;;;;;5.20;3.22;;;8.90;99.90;;;-144.05;81.71;56899.81;5084522;28;20021;-81
2023/09/26 00:49:10;;;;;;;6.30;3.92;;;9.50;99.90;;;-144.05;81.42;56895.56;5069412;28;20114;-82
2023/09/26 00:51:38;;;;;;;3.53;3.17;;;8.70;99.90;;;-144.05;81.71;56918.94;5063376;28;20017;-82
2023/09/26 00:54:09;;;;;;;5.38;3.17;;;11.50;99.90;;;-144.05;81.72;56906.19;5070970;28;20098;-82
2023/09/26 00:56:37;;;;;;;4.07;3.05;;;;;;;-144.05;81.67;56935.91;5070787;28;20058;-82
2023/09/26 00:59:05;;;;;;;5.70;3.30;;;9.30;99.90;;;-144.05;81.48;56908.31;5069532;28;20032;-81
2023/09/26 01:01:32;;;;;;;4.53;2.80;;;11.40;99.90;;;-144.05;81.77;56904.06;5071011;28;20060;-82
2023/09/26 01:03:59;;;;;;;5.03;3.47;;;9.40;99.90;;;-144.05;81.86;56918.94;5070774;28;20024;-81
2023/09/26 01:06:25;;;;;;;7.13;4.03;;;11.40;99.90;;;-144.05;82.01;56895.56;5069237;28;20115;-83
2023/09/26 01:08:51;;;;;;;5.78;4.35;;;11.50;99.90;;;-144.05;81.76;56878.56;5069305;28;20488;-81
2023/09/26 01:11:17;;;;;;;5.18;3.40;;;8.80;99.90;;;-144.05;81.77;56893.44;5070684;28;20397;-82
2023/09/26 01:13:45;;;;;;;7.63;4.30;;;;;;;-144.05;81.72;56916.81;5070496;28;20024;-83
2023/09/26 01:16:17;;;;;;;4.50;3.60;;;11.40;99.90;;;-144.05;81.75;56906.19;5069446;28;20028;-81
2023/09/26 01:18:45;;;;;;;3.78;2.70;;;11.30;99.90;;;-144.05;81.63;56923.19;5070688;28;20052;-80
2023/09/26 01:21:12;;;;;;;6.65;3.67;;;11.50;99.90;;;-144.05;81.89;56906.19;5068102;28;20048;-82
2023/09/26 01:23:41;;;;;;;7.57;3.92;;;11.20;99.90;;;-144.05;81.85;56910.44;5074044;28;20055;-80
2023/09/26 01:26:08;;;;;;;7.35;4.68;;;11.70;99.90;;;-144.05;82.22;56882.81;5074083;28;20056;-82
2023/09/26 01:28:36;;;;;;;5.40;3.38;;;8.40;99.90;;;-144.05;82.29;56893.44;5073801;28;20031;-82
2023/09/26 01:31:02;;;;;;;4.00;3.20;;;11.50;99.90;;;-144.05;82.22;56891.31;5072860;28;20029;-81
2023/09/26 01:33:28;;;;;;;6.28;3.55;;;9.00;99.90;;;-144.05;82.06;56887.06;5073707;28;20137;-80
2023/09/26 01:35:54;;;;;;;5.30;3.40;;;10.80;99.90;;;-144.05;82.03;56870.06;5088240;28;20021;-82
2023/09/26 01:38:21;;;;;;;5.68;3.13;;;11.20;99.90;;;-144.05;82.29;56872.19;5078238;28;20029;-83
2023/09/26 01:40:47;;;;;;;5.30;3.30;;;11.20;99.90;;;-144.05;82.29;56912.56;5077621;28;20028;-85
2023/09/26 01:43:13;;;;;;;5.85;3.78;;;11.20;99.90;;;-144.05;82.26;56895.56;5074239;28;20092;-85
2023/09/26 01:45:39;;;;;;;5.45;3.83;;;11.20;99.90;;;-144.05;82.64;56901.94;5074779;28;20020;-83
2023/09/26 01:48:06;;;;;;;9.63;3.92;;;8.80;99.90;;;-144.05;82.41;56882.81;5090340;28;20040;-84
2023/09/26 01:50:35;;;;;;;6.45;3.20;;;8.40;99.90;;;-144.05;82.16;56897.69;5073010;28;20028;-84
2023/09/26 01:53:03;;;;;;;6.93;3.67;;;11.10;99.90;;;-144.05;82.07;56899.81;5072826;28;20059;-84
2023/09/26 01:55:29;;;;;;;5.32;3.33;;;10.90;99.90;;;-144.05;82.14;56916.81;5072636;28;20020;-83
2023/09/26 01:57:56;;;;;;;7.72;3.95;;;11.40;99.90;;;-144.05;81.95;56908.31;5073175;28;20082;-82
2023/09/26 02:00:23;;;;;;;4.65;3.20;;;9.00;99.90;;;-144.05;82.21;56914.69;5073787;28;20025;-83
2023/09/26 02:02:51;;;;;;;5.90;3.58;;;11.50;99.90;;;-144.05;82.06;56904.06;5072618;28;20020;-82
2023/09/26 02:05:21;;;;;;;5.80;3.50;;;9.00;99.90;;;-144.05;82.23;56908.31;5073256;28;20481;-81
2023/09/26 02:07:49;;;;;;;5.32;3.28;;;9.10;99.90;;;-144.05;82.32;56923.19;5067161;28;20028;-82
2023/09/26 02:10:18;;;;;;;7.60;3.70;;;8.70;99.90;;;-144.05;82.50;56910.44;5088351;28;20059;-82
2023/09/26 02:12:51;;;;;;;6.18;3.53;;;11.20;99.90;;;-144.05;82.06;56921.06;5073966;28;20086;-81
2023/09/26 02:15:18;;;;;;;6.80;4.00;;;11.30;99.90;;;-144.05;82.26;56895.56;5073641;28;20028;-83
2023/09/26 02:17:44;;;;;;;4.07;3.58;;;8.70;99.90;;;-144.05;82.24;56895.56;5074763;28;20071;-85
2023/09/26 02:20:15;;;;;;;4.18;3.03;;;8.90;99.90;;;-144.05;82.01;56887.06;5072895;28;20028;-85
2023/09/26 02:22:51;;;;;;;8.70;3.20;;;11.40;99.90;;;-144.05;82.27;56929.53;5066272;28;20485;-82
2023/09/26 02:25:20;;;;;;;5.13;2.97;;;8.90;99.90;;;-144.05;82.14;56931.66;5073067;28;20529;-81
2023/09/26 02:27:47;;;;;;;5.03;3.30;;;11.50;99.90;;;-144.05;82.26;56916.81;5087879;28;20025;-82
2023/09/26 02:30:19;;;;;;;4.47;2.85;;;8.30;99.90;;;-144.05;82.35;56916.81;5072646;28;20033;-82
2023/09/26 02:32:45;;;;;;;4.97;3.22;;;9.70;99.90;;;-144.05;82.40;56918.94;5087678;28;20052;-81
2023/09/26 02:35:15;;;;;;;4.85;3.53;;;5.30;99.90;;;-144.05;82.21;56904.06;5087358;28;20032;-82
2023/09/26 02:37:43;;;;;;;6.20;3.42;;;9.60;99.90;;;-144.05;81.87;56908.31;5086594;28;20047;-82
2023/09/26 02:40:11;;;;;;;5.70;2.97;;;8.40;99.90;;;-144.05;81.92;56910.44;5084799;28;20536;-82
2023/09/26 02:42:43;;;;;;;4.90;3.40;;;9.50;99.90;;;-144.05;82.17;56916.81;5063257;28;20020;-82
2023/09/26 02:45:10;;;;;;;6.95;3.30;;;;;;;-144.05;81.86;56889.19;5072467;28;20024;-81
2023/09/26 02:47:37;;;;;;;8.57;3.50;;;9.40;99.90;;;-144.05;82.01;56901.94;5064694;28;20048;-83
2023/09/26 02:50:03;;;;;;;3.53;2.55;;;;;;;-144.05;82.17;56904.06;5084803;28;20029;-82
2023/09/26 02:52:30;;;;;;;5.47;2.83;;;8.90;99.90;;;-144.05;82.27;56882.81;5068948;28;20485;-82
2023/09/26 02:54:56;;;;;;;5.28;3.53;;;6.30;99.90;;;-144.05;82.10;56904.06;5076407;28;20104;-81
2023/09/26 02:57:22;;;;;;;5.55;3.53;;;9.50;99.90;;;-144.05;82.01;56921.06;5069086;28;20037;-81
2023/09/26 02:59:48;;;;;;;5.07;3.35;;;9.30;99.90;;;-144.05;82.22;56891.31;5087615;28;20427;-82
2023/09/26 03:02:15;;;;;;;4.43;3.03;;;;;;;-144.05;81.84;56908.31;5070521;28;20025;-83
2023/09/26 03:04:40;;;;;;;5.25;3.28;;;9.00;99.90;;;-144.05;81.89;56887.06;5072384;28;20039;-82
2023/09/26 03:07:07;;;;;;;6.88;3.53;;;;;;;-144.05;81.96;56912.56;5072071;28;20091;-82
2023/09/26 03:09:32;;;;;;;5.88;3.45;;;9.50;99.90;;;-144.05;82.07;56918.94;5069069;28;20017;-83
2023/09/26 03:11:59;;;;;;;5.65;3.17;;;;;;;-144.05;82.05;56916.81;5082331;28;20528;-82
2023/09/26 03:14:25;;;;;;;4.80;3.42;;;9.70;99.90;;;-144.05;82.38;56916.81;5079300;28;20127;-82
2023/09/26 03:16:51;;;;;;;5.90;3.38;;;9.30;99.90;;;-144.05;82.49;56901.94;5072118;28;20024;-83
2023/09/26 03:19:22;;;;;;;5.82;3.70;;;9.40;99.90;;;-144.05;82.24;56921.06;5070393;28;20033;-82
2023/09/26 03:21:53;;;;;;;4.10;3.47;;;9.50;99.90;;;-144.05;82.47;56897.69;5070472;28;20024;-82
2023/09/26 03:24:19;;;;;;;4.50;3.20;;;9.40;99.90;;;-144.05;82.52;56910.44;5070531;28;20056;-82
2023/09/26 03:26:45;;;;;;;4.13;2.95;;;8.10;99.90;;;-144.05;82.42;56931.66;5070600;28;20032;-82
2023/09/26 03:29:12;;;;;;;6.47;3.00;;;8.50;99.90;;;-144.05;82.63;56933.78;5087464;28;20115;-81
2023/09/26 03:31:41;;;;;;;4.00;3.13;;;9.20;99.90;;;-144.05;82.57;56921.06;5071595;28;20046;-83
2023/09/26 03:34:09;;;;;;;4.63;3.35;;;9.10;99.90;;;-144.05;82.47;56914.69;5070463;28;20024;-81
2023/09/26 03:36:36;;;;;;;4.30;3.22;;;5.40;99.90;;;-144.05;82.63;56935.91;5087126;28;20024;-82
2023/09/26 03:39:03;;;;;;;4.80;3.55;;;8.00;99.90;;;-144.05;82.68;56914.69;5087413;28;20025;-83
2023/09/26 03:41:33;;;;;;;4.57;3.35;;;;;;;-144.05;82.50;56923.19;5070235;28;20028;-81
2023/09/26 03:43:59;;;;;;;3.40;2.75;;;9.40;99.90;;;-144.05;82.69;56910.44;5071176;28;20031;-81
2023/09/26 03:46:25;;;;;;;5.45;3.30;;;9.70;99.90;;;-144.05;82.66;56887.06;5071333;28;20025;-82
2023/09/26 03:48:51;;;;;;;5.93;3.30;;;;;;;-144.05;82.71;56925.28;5071528;28;20020;-79
2023/09/26 03:51:17;;;;;;;6.13;3.75;;;8.40;99.90;;;-144.05;82.68;56925.28;5067440;28;20029;-83
2023/09/26 03:53:43;;;;;;;5.05;3.65;;;9.40;99.90;;;-144.05;82.88;56921.06;5070236;28;20028;-81
2023/09/26 03:56:10;;;;;;;5.85;4.18;;;9.40;99.90;;;-144.05;82.32;56884.94;5070398;28;20035;-82
2023/09/26 03:58:37;;;;;;;7.03;4.00;;;;;;;-144.05;82.71;56904.06;5071017;28;20443;-81
2023/09/26 04:01:16;;;;;;;6.63;3.17;;;8.00;99.90;;;-144.05;82.59;56912.56;5071291;28;20537;-81
2023/09/26 04:03:48;;;;;;;4.93;3.92;;;8.60;99.90;;;-144.05;82.78;56914.69;5071401;28;20035;-82
2023/09/26 04:06:16;;;;;;;6.25;3.83;;;8.60;99.90;;;-144.05;82.63;56897.69;5071421;28;20044;-82
2023/09/26 04:08:42;;;;;;;4.70;3.38;;;6.00;99.90;;;-144.05;82.85;56923.19;5071292;28;20025;-81
2023/09/26 04:11:17;;;;;;;5.82;3.50;;;9.20;99.90;;;-144.05;82.77;56921.06;5071241;28;20497;-81
2023/09/26 04:13:44;;;;;;;5.20;3.85;;;8.10;99.90;;;-144.05;82.49;56901.94;5069805;28;20024;-81
2023/09/26 04:16:11;;;;;;;6.13;3.88;;;8.50;99.90;;;-144.05;82.77;56929.53;5071354;28;20029;-82
2023/09/26 04:18:37;;;;;;;4.07;3.33;;;9.30;99.90;;;-144.05;82.74;56929.53;5070680;28;20095;-82
2023/09/26 04:21:06;;;;;;;6.05;3.38;;;8.20;99.90;;;-144.05;82.74;56908.31;5070999;28;20090;-82
2023/09/26 04:23:32;;;;;;;7.05;3.72;;;8.00;99.90;;;-144.05;82.80;56908.31;5070679;28;20064;-82
2023/09/26 04:25:58;;;;;;;5.10;4.03;;;9.10;99.90;;;-144.05;82.89;56912.56;5071282;28;20029;-81
2023/09/26 04:28:25;;;;;;;9.10;3.95;;;6.40;99.90;;;-144.05;82.78;56893.44;5068559;28;20025;-81
2023/09/26 04:30:51;;;;;;;5.22;3.90;;;8.10;99.90;;;-144.05;82.88;56906.19;5070693;28;20488;-81
2023/09/26 04:33:17;;;;;;;5.03;3.70;;;;;;;-144.05;82.88;56925.28;5071257;28;20092;-79
2023/09/26 04:35:43;;;;;;;5.10;3.42;;;9.30;99.90;;;-144.05;82.99;56914.69;5071331;28;20048;-83
2023/09/26 04:38:09;;;;;;;5.13;3.40;;;8.90;99.90;;;-144.05;83.13;56916.81;5070727;28;20056;-83
2023/09/26 04:40:35;;;;;;;5.18;3.53;;;8.90;99.90;;;-144.05;83.04;56938.03;5070513;28;20039;-82
2023/09/26 04:43:04;;;;;;;5.53;3.22;;;5.80;99.90;;;-144.05;83.20;56914.69;5070626;28;20036;-82
2023/09/26 04:45:31;;;;;;;5.03;3.47;;;6.30;99.90;;;-144.05;83.15;56908.31;5069212;28;20021;-81
2023/09/26 04:48:00;;;;;;;5.70;3.90;;;6.30;99.90;;;-144.05;83.34;56916.81;5070727;28;20031;-81
2023/09/26 04:50:28;;;;;;;7.18;4.53;;;7.80;99.90;;;-144.05;83.20;56906.19;5086090;28;20166;-81
2023/09/26 04:52:55;;;;;;;8.43;4.35;;;9.00;99.90;;;-144.05;83.39;56895.56;5070489;28;20032;-82
2023/09/26 04:55:21;;;;;;;6.43;4.00;;;9.00;99.90;;;-144.05;83.30;56904.06;5069442;28;20024;-83
2023/09/26 04:57:47;;;;;;;7.07;3.97;;;8.80;99.90;;;-144.05;83.52;56878.56;5074182;28;20413;-80
2023/09/26 05:00:17;;;;;;;7.07;4.57;;;8.70;99.90;;;-144.05;82.96;56901.94;5074443;28;20098;-81
2023/09/26 05:02:50;;;;;;;6.95;5.13;;;8.90;99.90;;;-144.05;83.19;56906.19;5066868;28;20112;-83
2023/09/26 05:05:17;;;;;;;7.30;4.70;;;;;;;-144.05;83.11;56899.81;5070217;28;20029;-80
2023/09/26 05:07:44;;;;;;;6.93;4.35;;;9.30;99.90;;;-144.05;83.22;56912.56;5073734;28;20025;-82
2023/09/26 05:11:19;;;;;;;5.15;3.63;;;8.40;99.90;;;-144.05;83.15;56923.19;5097066;28;20086;-82
2023/09/26 05:14:21;;;;;;;4.38;3.20;;;5.80;99.90;;;-144.05;83.16;56921.06;5075495;28;20044;-80
2023/09/26 05:16:49;;;;;;;9.32;4.85;;;8.00;99.90;;;-144.05;83.37;56910.44;5067478;28;20055;-81
2023/09/26 05:19:15;;;;;;;7.05;4.60;;;8.90;99.90;;;-144.05;83.48;56912.56;5074068;28;20031;-82
2023/09/26 05:21:41;;;;;;;10.75;5.55;;;5.50;99.90;;;-144.05;83.44;56933.78;5074884;28;20017;-81
2023/09/26 05:24:07;;;;;;;5.72;4.60;;;8.70;99.90;;;-144.05;83.67;56904.06;5075240;28;20028;-81
2023/09/26 05:26:34;;;;;;;7.07;4.45;;;6.60;99.90;;;-144.05;83.39;56908.31;5072542;28;20021;-82
2023/09/26 05:29:00;;;;;;;7.05;5.07;;;8.10;99.90;;;-144.05;83.22;56918.94;5089631;28;20078;-81
2023/09/26 05:31:32;;;;;;;6.20;4.43;;;5.80;99.90;;;-144.05;83.26;56925.28;5073537;28;20058;-80
2023/09/26 05:33:59;;;;;;;7.90;4.07;;;9.20;99.90;;;-144.05;83.37;56921.06;5072538;28;20217;-83
2023/09/26 05:36:25;;;;;;;7.63;4.10;;;8.00;99.90;;;-144.05;83.38;56929.53;5073865;28;20060;-80
2023/09/26 05:38:51;;;;;;;6.82;4.22;;;;;;;-144.05;83.25;56910.44;5073633;28;20864;-80
2023/09/26 05:41:18;;;;;;;5.72;4.32;;;8.00;99.90;;;-144.05;83.36;56925.28;5069859;28;20504;-80
2023/09/26 05:43:44;;;;;;;7.93;4.50;;;8.50;99.90;;;-144.05;83.24;56923.19;5089128;28;20028;-79
2023/09/26 05:46:10;;;;;;;8.38;5.00;;;6.40;99.90;;;-144.05;83.29;56923.19;5073737;28;20055;-83
2023/09/26 05:48:39;;;;;;;11.18;5.38;;;9.20;99.90;;;-144.05;83.26;56944.41;5087308;28;20025;-81
2023/09/26 05:51:05;;;;;;;12.85;6.10;;;8.10;99.90;;;-144.05;83.56;56904.06;5073313;28;20096;-80
2023/09/26 05:53:31;;;;;;;11.10;6.30;;;;;;;-144.05;83.24;56891.31;5086205;28;20024;-80
2023/09/26 05:55:58;;;;;;;11.00;5.43;;;9.40;99.90;;;-144.05;83.14;56893.44;5068712;28;20052;-79
2023/09/26 05:58:24;;;;;;;7.97;4.95;;;6.50;99.90;;;-144.05;83.54;56904.06;5087301;28;20493;-81
2023/09/26 06:00:52;;;;;;;6.90;4.50;;;11.30;99.90;;;-144.05;83.67;56914.69;5089051;28;20031;-81
2023/09/26 06:03:18;;;;;;;7.53;4.40;;;8.60;99.90;;;-144.05;83.75;56895.56;5086776;28;20029;-80
2023/09/26 06:05:45;;;;;;;7.82;4.20;;;8.90;99.90;;;-144.05;83.48;56916.81;5073007;28;20120;-81
2023/09/26 06:08:11;;;;;;;6.40;4.35;;;11.40;99.90;;;-144.05;83.26;56895.56;5072762;28;20032;-80
2023/09/26 06:10:38;;;;;;;6.00;3.78;;;;;;;-144.05;83.06;56906.19;5072015;28;20112;-80
2023/09/26 06:13:04;;;;;;;5.97;4.13;;;11.60;99.90;;;-144.05;82.97;56880.69;5072946;28;20045;-79
2023/09/26 06:15:31;;;;;;;6.78;4.60;;;8.60;99.90;;;-144.05;82.56;56880.69;5074295;28;20036;-81
2023/09/26 06:17:59;;;;;;;9.07;4.65;;;;;;;-144.05;81.10;56884.94;5074635;28;20032;-82
2023/09/26 06:20:27;;;;;;;12.00;5.03;;;11.20;99.90;;;-144.05;80.44;56891.31;5073313;28;20028;-84
2023/09/26 06:22:55;;;;;;;4.88;4.22;;;11.10;99.90;;;-144.05;80.75;56884.94;5074845;28;20152;-83
2023/09/26 06:25:24;;;;;;;7.70;4.00;;;11.40;99.90;;;-144.05;81.43;56882.81;5092246;28;20040;-81
2023/09/26 06:27:51;;;;;;;6.82;4.43;;;;;;;-144.05;82.15;56912.56;5086543;28;20095;-75
2023/09/26 06:30:17;;;;;;;4.75;3.60;;;11.50;99.90;;;-144.05;82.48;56880.69;5084598;28;20028;-85
2023/09/26 06:32:44;;;;;;;6.75;3.80;;;14.40;99.90;;;-144.05;82.39;56893.44;5085501;28;20020;-84
2023/09/26 06:35:10;;;;;;;12.93;4.85;;;;;;;-144.05;82.01;56874.31;5077419;28;20033;-83
2023/09/26 06:37:36;;;;;;;8.70;4.65;;;14.50;99.90;;;-144.05;80.96;56857.34;5078715;28;20025;-85
2023/09/26 06:40:07;;;;;;;10.70;4.38;;;;;;;-144.05;80.46;56874.31;5077467;28;20023;-83
2023/09/26 06:42:34;;;;;;;6.80;3.92;;;12.60;99.90;;;-144.05;78.08;56861.56;5076572;28;20421;-82
2023/09/26 06:45:00;;;;;;;7.38;4.07;;;15.10;99.90;;;-144.05;75.16;56893.44;5077003;28;20036;-85
2023/09/26 06:47:26;;;;;;;7.07;3.80;;;;;;;-144.05;71.84;56891.31;5075219;28;20067;-85
2023/09/26 06:49:55;;;;;;;10.52;4.03;;;13.10;99.90;;;-144.05;69.87;56908.31;5074886;28;20035;-79
2023/09/26 06:52:22;;;;;;;7.35;3.55;;;15.00;99.90;;;-144.05;68.74;56891.31;5074289;28;20059;-80
2023/09/26 06:54:50;;;;;;;6.32;3.65;;;14.60;99.90;;;-144.05;69.60;56895.56;5080272;28;20489;-81
2023/09/26 06:57:20;;;;;;;9.48;4.32;;;14.80;99.90;;;-144.05;70.07;56895.56;5070306;28;20036;-82
2023/09/26 06:59:50;;;;;;;6.20;3.72;;;13.20;99.90;;;-144.05;70.31;56904.06;5074148;28;20039;-83
2023/09/26 07:02:17;;;;;;;5.70;3.75;;;13.50;99.90;;;-144.05;70.58;56874.31;5088419;28;20017;-81
2023/09/26 07:04:43;;;;;;;8.88;4.28;;;11.80;99.90;;;-144.05;70.39;56906.19;5075590;28;20564;-79
2023/09/26 07:07:09;;;;;;;10.02;3.28;;;12.30;99.90;;;-144.05;69.92;56901.94;5076548;28;20108;-83
2023/09/26 07:09:35;;;;;;;5.85;2.80;;;15.60;99.90;;;-144.05;69.25;56887.06;5075163;28;20048;-82
2023/09/26 07:12:01;;;;;;;6.25;3.55;;;15.90;99.90;;;-144.05;66.75;56893.44;5075775;28;20430;-80
2023/09/26 07:14:33;;;;;;;6.07;3.75;;;13.50;99.90;;;-144.05;65.08;56867.94;5075680;28;20390;-80
2023/09/26 07:16:59;;;;;;;6.43;3.40;;;17.30;99.90;;;-144.05;63.52;56914.69;5075377;28;20028;-82
2023/09/26 07:19:31;;;;;;;6.10;3.10;;;17.20;99.90;;;-144.05;62.04;56910.44;5073354;28;20028;-83
2023/09/26 07:21:57;;;;;;;7.10;3.60;;;18.00;99.90;;;-144.05;61.95;56914.69;5075411;28;20020;-82
2023/09/26 07:24:24;;;;;;;6.10;3.20;;;;;;;-144.05;61.08;56887.06;5073782;28;20036;-82
2023/09/26 07:26:51;;;;;;;4.05;3.00;;;;;;;-144.05;61.68;56910.44;5074988;28;20076;-82
2023/09/26 07:29:17;;;;;;;8.68;3.17;;;;;;;-144.05;62.07;56912.56;5075093;28;20025;-83
2023/09/26 07:31:44;;;;;;;6.18;3.17;;;18.80;99.90;;;-144.05;60.76;56912.56;5073744;28;20020;-80
2023/09/26 07:34:10;;;;;;;8.60;3.08;;;;;;;-144.05;60.58;56889.19;5075260;28;20024;-81
2023/09/26 07:36:36;;;;;;;4.55;3.17;;;15.80;99.90;;;-144.05;60.18;56916.81;5074323;28;20036;-80
2023/09/26 07:39:06;;;;;;;6.40;3.05;;;18.60;99.90;;;-144.05;60.26;56914.69;5081014;28;20036;-82
2023/09/26 07:41:32;;;;;;;8.95;3.38;;;19.60;99.90;;;-144.05;59.68;56935.91;5073224;28;20575;-83
2023/09/26 07:43:58;;;;;;;4.90;3.20;;;;;;;-144.05;58.24;56921.06;5085520;28;20045;-82
2023/09/26 07:46:25;;;;;;;5.70;3.40;;;;;;;-144.05;56.36;56942.28;5088089;28;20393;-82
2023/09/26 07:48:50;;;;;;;7.50;2.80;;;16.90;99.90;;;-144.05;55.48;56927.41;5069162;28;20029;-86
2023/09/26 07:51:17;;;;;;;6.15;2.78;;;;;;;-144.05;56.13;56929.53;5072538;28;20087;-85
2023/09/26 07:53:43;;;;;;;5.43;2.35;;;19.20;99.90;;;-144.05;54.53;56910.44;5074273;28;20028;-82
2023/09/26 07:56:10;;;;;;;5.65;2.92;;;20.80;99.90;;;-144.05;53.43;56940.16;5076027;28;20044;-84
2023/09/26 07:58:36;;;;;;;12.25;4.30;;;21.30;99.90;;;-144.05;53.01;56916.81;5073213;28;20100;-81
2023/09/26 08:01:06;;;;;;;9.50;3.50;;;17.70;99.90;;;-144.05;53.63;56946.53;5073811;28;20104;-82
2023/09/26 08:03:33;;;;;;;6.85;2.70;;;17.90;99.90;;;-144.05;50.07;56952.91;5070817;28;20082;-79
2023/09/26 08:06:05;;;;;;;5.97;2.35;;;18.00;99.90;;;-144.05;51.56;56912.56;5073367;28;20481;-80
2023/09/26 08:08:32;;;;;;;3.58;2.15;;;18.20;99.90;;;-144.05;50.64;56927.41;5072088;28;20051;-84
2023/09/26 08:11:09;;;;;;;5.00;2.17;;;21.60;99.90;;;-144.05;49.47;56963.53;5074293;28;20024;-85
2023/09/26 08:13:38;;;;;;;3.17;1.88;;;21.60;99.90;;;-144.05;49.35;56935.91;5088907;28;20063;-83
2023/09/26 08:16:04;;;;;;;6.13;2.50;;;18.20;99.90;;;-144.05;48.90;56942.28;5073110;28;20082;-83
2023/09/26 08:18:30;;;;;;;5.28;2.17;;;18.60;99.90;;;-144.05;48.68;56957.16;5072746;28;20668;-85
2023/09/26 08:20:58;;;;;;;4.30;2.28;;;18.60;99.90;;;-144.05;48.21;56938.03;5074491;28;20016;-83
2023/09/26 08:23:31;;;;;;;7.97;2.50;;;22.60;99.90;;;-144.05;48.96;56955.03;5074425;28;20029;-86
2023/09/26 08:26:06;;;;;;;16.73;3.92;;;22.00;99.90;;;-144.05;48.24;56959.28;5074409;28;20029;-82
2023/09/26 08:28:32;;;;;;;11.82;3.38;;;19.10;99.90;;;-144.05;47.15;56974.16;5073195;28;20524;-85
2023/09/26 08:31:14;;;;;;;7.25;2.97;;;21.20;99.90;;;-144.05;46.20;56972.03;5075121;28;20064;-83
2023/09/26 08:33:41;;;;;;;3.13;1.60;;;19.50;99.90;;;-144.05;46.93;56978.41;5075237;28;20070;-81
2023/09/26 08:36:20;;;;;;;2.50;1.98;;;22.60;99.90;;;-144.05;45.47;56984.78;5075127;28;20056;-84
2023/09/26 08:38:51;;;;;;;3.85;1.90;;;19.90;99.90;;;-144.05;44.49;56993.25;5076450;28;20035;-84
2023/09/26 08:41:19;;;;;;;4.55;1.90;;;23.50;99.90;;;-144.05;45.16;57033.63;5075916;28;20055;-81
2023/09/26 08:43:46;;;;;;;2.80;1.90;;;;;;;-144.05;43.98;56974.16;5076436;28;20454;-82
2023/09/26 08:46:12;;;;;;;3.50;2.03;;;23.90;99.90;;;-144.05;43.15;56997.50;5076934;28;20390;-84
2023/09/26 08:48:39;;;;;;;3.90;2.25;;;20.10;99.90;;;-144.05;44.22;56976.28;5086251;28;20056;-83
2023/09/26 08:51:06;;;;;;;3.42;1.95;;;23.60;99.90;;;-144.05;42.81;57010.25;5074914;28;20020;-82
2023/09/26 08:53:32;;;;;;;4.15;1.95;;;;;;;-144.05;42.07;56989.00;5076209;28;20075;-83
2023/09/26 08:55:58;;;;;;;4.85;1.75;;;20.60;99.90;;;-144.05;41.47;56995.38;5076578;28;20063;-82
2023/09/26 08:58:27;;;;;;;3.58;1.60;;;23.80;99.90;;;-144.05;41.13;56999.63;5076211;28;20450;-83
2023/09/26 09:00:54;;;;;;;3.75;1.85;;;20.80;99.90;;;-144.05;40.53;57018.75;5071206;28;20021;-82
2023/09/26 09:03:20;;;;;;;4.50;2.35;;;;;;;-144.05;40.13;56961.41;5072159;28;20448;-83
2023/09/26 09:05:46;;;;;;;2.55;1.70;;;21.00;99.90;;;-144.05;39.90;57023.00;5076345;28;20029;-82
2023/09/26 09:08:22;;;;;;;2.88;1.88;;;24.70;99.90;;;-144.05;40.39;57014.50;5076737;28;20517;-82
2023/09/26 09:10:53;;;;;;;5.57;1.77;;;21.10;99.90;;;-144.05;40.47;57035.75;5076322;28;20032;-83
2023/09/26 09:13:42;;;;;;;3.17;1.90;;;21.20;99.90;;;-144.05;39.69;57061.22;5075567;28;20373;-81
2023/09/26 09:16:14;;;;;;;2.63;2.00;;;25.10;99.90;;;-144.05;39.04;57044.25;5076518;28;20054;-81
2023/09/26 09:18:50;;;;;;;4.35;1.92;;;25.10;99.90;;;-144.05;38.95;57029.38;5072267;28;20389;-83
2023/09/26 09:21:24;;;;;;;5.85;1.52;;;24.90;99.90;;;-144.05;38.89;57035.75;5075236;28;20043;-83
2023/09/26 09:23:52;;;;;;;4.95;1.83;;;25.50;99.90;;;-144.05;38.74;57031.50;5075649;28;20021;-82
2023/09/26 09:26:21;;;;;;;3.70;1.73;;;23.60;99.90;;;-144.05;39.28;57010.25;5074138;28;20056;-81
2023/09/26 09:28:50;;;;;;;3.45;1.70;;;;;;;-144.05;39.25;57010.25;5075963;28;20029;-83
2023/09/26 09:31:16;;;;;;;3.42;2.20;;;23.40;99.90;;;-144.05;40.07;57014.50;5091596;28;20112;-84
2023/09/26 09:33:48;;;;;;;4.18;1.90;;;21.60;99.90;;;-144.05;39.95;57016.63;5080531;28;20119;-82
2023/09/26 09:36:14;;;;;;;2.50;1.70;;;23.60;99.90;;;-144.05;39.34;57048.50;5075416;28;20031;-85
2023/09/26 09:38:41;;;;;;;3.03;2.00;;;;;;;-144.05;39.55;57014.50;5075549;28;20107;-81
2023/09/26 09:41:08;;;;;;;7.45;1.92;;;24.50;99.90;;;-144.05;39.94;57008.13;5076345;28;20042;-83
2023/09/26 09:43:36;;;;;;;4.03;1.65;;;24.70;99.90;;;-144.05;39.39;57031.50;5075104;28;20040;-84
2023/09/26 09:46:08;;;;;;;4.15;1.80;;;24.80;99.90;;;-144.05;39.31;57029.38;5092616;28;20034;-84
2023/09/26 09:48:44;;;;;;;3.63;1.65;;;24.30;99.90;;;-144.05;39.78;57020.88;5094574;28;20025;-83
2023/09/26 09:51:15;;;;;;;4.18;1.88;;;25.10;99.90;;;-144.05;40.31;57018.75;5081873;28;20039;-83
2023/09/26 09:53:52;;;;;;;4.65;1.83;;;23.70;99.90;;;-144.05;39.87;57020.88;5078592;28;20096;-85
2023/09/26 09:56:24;;;;;;;3.85;1.73;;;24.80;99.90;;;-144.05;39.36;57048.50;5078314;28;20044;-81
2023/09/26 09:58:59;;;;;;;2.67;1.83;;;23.90;99.90;;;-144.05;38.66;57048.50;5079028;28;20029;-80
2023/09/26 10:01:26;;;;;;;2.25;1.70;;;25.20;99.90;;;-144.05;38.79;57031.50;5072667;28;20036;-83
2023/09/26 10:03:53;;;;;;;4.25;1.75;;;25.40;99.90;;;-144.05;39.02;57048.50;5074977;28;20040;-82
2023/09/26 10:06:20;;;;;;;4.68;2.30;;;25.80;99.90;;;-144.05;38.79;57031.50;5074450;28;20021;-78
2023/09/26 10:08:48;;;;;;;3.97;2.00;;;25.10;99.90;;;-144.05;39.14;56982.66;5073503;28;20024;-79
2023/09/26 10:11:18;;;;;;;4.25;2.35;;;25.30;99.90;;;-144.05;38.99;57035.75;5084513;28;20453;-80
2023/09/26 10:13:47;;;;;;;3.53;1.80;;;25.20;99.90;;;-144.05;38.56;57031.50;5074081;28;20064;-83
2023/09/26 10:16:17;;;;;;;3.92;2.00;;;25.30;99.90;;;-144.05;39.34;56995.38;5075726;28;20025;-81
2023/09/26 10:18:49;;;;;;;2.30;1.80;;;23.70;99.90;;;-144.05;39.43;56995.38;5073577;28;20021;-82
2023/09/26 10:21:31;;;;;;;2.63;1.88;;;25.80;99.90;;;-144.05;37.92;57033.63;5073656;28;20031;-81